< Cyclone 197215 1972 Season Cyclone 197217 >
Cyclone 197216 (CAROL)
General InformationTrack Information on Google Maps || ResourceGoogle EarthGE AnimationAtom FeedGeoJSON
Detalied Best Track (Time Zone = UTC)
Year Month Day Hour Lat. Long. Pressure (hPa) Wind (kt) Class Image Chart
1972 4 6 00 -12.9 84.0 994 0 0 -- --
1972 4 6 03 -12.9 83.9 994 0 0 -- --
1972 4 6 06 -12.9 83.8 993 0 0 -- --
1972 4 6 09 -12.9 83.7 993 0 0 -- --
1972 4 6 12 -12.9 83.6 992 0 0 -- --
1972 4 6 15 -12.9 83.5 992 0 0 -- --
1972 4 6 18 -12.9 83.4 991 0 0 -- --
1972 4 6 21 -12.9 83.3 991 0 0 -- --
1972 4 7 00 -12.9 83.2 990 0 0 -- --
1972 4 7 03 -13.1 83.0 989 0 0 -- --
1972 4 7 06 -13.2 82.8 988 0 0 -- --
1972 4 7 09 -13.3 82.6 987 0 0 -- --
1972 4 7 12 -13.4 82.4 986 0 0 -- --
1972 4 7 15 -13.5 82.3 985 0 0 -- --
1972 4 7 18 -13.6 82.2 984 0 0 -- --
1972 4 7 21 -13.7 82.1 982 0 0 -- --
1972 4 8 00 -13.9 82.0 980 0 0 -- --
1972 4 8 03 -14.1 81.8 978 0 0 -- --
1972 4 8 06 -14.4 81.6 976 0 0 -- --
1972 4 8 09 -14.7 81.5 974 0 0 -- --
1972 4 8 12 -15.0 81.4 972 0 0 -- --
1972 4 8 15 -15.2 81.3 970 0 0 -- --
1972 4 8 18 -15.4 81.2 968 0 0 -- --
1972 4 8 21 -15.6 81.1 966 0 0 -- --
1972 4 9 00 -15.9 81.0 965 0 0 -- --
1972 4 9 03 -16.0 81.0 965 0 0 -- --
1972 4 9 06 -16.1 81.1 965 0 0 -- --
1972 4 9 09 -16.2 81.2 965 0 0 -- --
1972 4 9 12 -16.3 81.3 966 0 0 -- --
1972 4 9 15 -16.4 81.4 966 0 0 -- --
1972 4 9 18 -16.5 81.5 967 0 0 -- --
1972 4 9 21 -16.7 81.6 967 0 0 -- --
1972 4 10 00 -16.9 81.7 968 0 0 -- --
1972 4 10 03 -17.2 81.9 968 0 0 -- --
1972 4 10 06 -17.5 82.2 968 0 0 -- --
1972 4 10 09 -17.8 82.5 969 0 0 -- --
1972 4 10 12 -18.1 82.8 969 0 0 -- --
1972 4 10 15 -18.3 83.1 969 0 0 -- --
1972 4 10 18 -18.5 83.4 970 0 0 -- --
1972 4 11 12 -20.4 85.3 974 0 0 -- --
1972 4 11 15 -20.8 85.6 975 0 0 -- --
1972 4 11 18 -21.2 85.9 976 0 0 -- --
1972 4 11 21 -21.6 86.2 978 0 0 -- --
1972 4 12 00 -21.9 86.5 980 0 0 -- --
1972 4 12 03 -22.1 86.6 983 0 0 -- --
1972 4 12 06 -22.2 86.8 986 0 0 -- --
1972 4 12 09 -22.3 87.0 989 0 0 -- --
1972 4 12 12 -22.4 87.2 992 0 0 -- --
1972 4 12 15 -22.5 87.4 994 0 0 -- --
1972 4 12 18 -22.6 87.6 996 0 0 -- --
1972 4 12 21 -22.7 87.8 998 0 0 -- --
1972 4 13 00 -22.9 88.0 1000 0 0 -- --
1972 4 13 03 -23.2 88.7 1000 0 0 -- --
1972 4 13 06 -23.5 89.4 1001 0 0 -- --
1972 4 13 09 -23.9 90.1 1001 0 0 -- --
1972 4 13 12 -24.3 90.8 1002 0 0 -- --
1972 4 13 15 -24.7 91.6 1002 0 0 -- --
1972 4 13 18 -25.1 92.4 1003 0 0 -- --
1972 4 13 21 -25.5 93.2 1003 0 0 -- --
1972 4 14 00 -25.9 94.0 1004 0 0 -- --
< Cyclone 197215 1972 Season Cyclone 197217 >

Help